Latest Coastal Weather Observations for Laverton

IDV60701

Issued at 9:05 pm EDT Wednesday 22 October 2014 (issued every 10 minutes, with the page automatically refreshed every 10 minutes)

About coastal observations | Map of coastal stations | Coastal observations for VIC | Marine services | Other Formats
Station Details ID: 087031 Name: LAVERTON RAAF Lat: -37.86 Lon: 144.76 Height: 20.1 m
Data from the previous 72 hours. | See also: Recent months at Laverton
Date/Time
EDT
Temp

°C
Wind Pressure Rain
since 9am
mm
Weather Cloud Vis
km
Sea
Height
m
Swell
Dir
 
Speed
knots
Gust
knots
hPa Trend Height
m
Period
s
Dir
22/09:00pm 20.8 WSW 10 14 1017.6 - 0.0 - Cloudy 10 - - - -
22/08:30pm 21.8 SW 11 16 1016.4 - 0.0 - - 10 - - - -
22/08:00pm 22.9 SW 12 20 1015.6 - 0.0 - - 10 - - - -
22/07:30pm 27.7 NW 7 11 1014.8 - 0.0 - - 10 - - - -
22/07:00pm 29.1 N 8 11 1014.0 - 0.0 - - 10 - - - -
22/06:30pm 30.5 N 10 14 1013.7 - 0.0 - - 10 - - - -
22/06:00pm 30.7 NNE 9 15 1013.7 - 0.0 - Mostly clear 10 - - - -
22/05:30pm 30.6 NNE 11 16 1013.8 - 0.0 - Partly cloudy 10 - - - -
22/05:00pm 30.1 NE 12 18 1013.9 - 0.0 - Partly cloudy 10 - - - -
22/04:30pm 30.6 NE 13 17 1014.1 - 0.0 - - 10 - - - -
22/04:00pm 32.5 NNE 14 20 1014.3 - 0.0 - - 10 - - - -
22/03:30pm 31.5 NNE 12 18 1014.4 - 0.0 - - 10 - - - -
22/03:00pm 31.8 NNE 11 16 1014.8 - 0.0 - Cloudy 10 - - - -
22/02:30pm 32.1 NNE 12 18 1015.0 - 0.0 - - 10 - - - -
22/02:00pm 32.3 NE 13 18 1015.5 - 0.0 - - 10 - - - -
22/01:30pm 31.3 NE 12 18 1016.0 - 0.0 - - 10 - - - -
22/01:00pm 29.9 NNE 12 18 1016.5 - 0.0 - - 10 - - - -
22/12:30pm 28.5 NNE 14 19 1017.0 - 0.0 - - 10 - - - -
22/12:00pm 27.9 NNE 14 19 1017.4 - 0.0 - Mostly cloudy 10 - - - -
22/11:30am 26.7 NNE 15 19 1017.9 - 0.0 - - 10 - - - -
22/11:00am 25.9 NNE 14 20 1018.6 - 0.0 - - 10 - - - -
22/10:30am 24.7 NNE 14 21 1018.9 - 0.0 - - 10 - - - -
22/10:00am 23.5 N 12 17 1019.2 - 0.0 - - 10 - - - -
22/09:43am 23.2 N 15 25 1018.9 - 0.0 - - 10 - - - -
22/09:30am 22.8 N 16 25 1018.7 - 0.0 - - 10 - - - -
22/09:00am 21.9 N 15 25 1018.9 - 0.0 - - 10 - - - -
22/08:34am 20.7 N 15 26 1018.8 - 0.0 - - 10 - - - -
22/08:30am 20.7 N 15 23 1018.8 - 0.0 - - 10 - - - -
22/08:00am 20.2 N 15 22 1018.9 - 0.0 - - 10 - - - -
22/07:30am 19.4 N 18 28 1018.8 - 0.0 - - 10 - - - -
22/07:12am 19.1 N 15 26 1018.9 - 0.0 - - 10 - - - -
22/07:00am 19.1 N 14 24 1018.9 - 0.0 - - 10 - - - -
22/06:30am 18.3 N 9 15 1019.2 - 0.0 - - 10 - - - -
22/06:00am 18.6 N 11 16 1019.1 - 0.0 - - 10 - - - -
22/05:30am 18.8 N 10 17 1019.1 - 0.0 - - 10 - - - -
22/05:00am 18.2 NNE 8 11 1019.1 - 0.0 - - 10 - - - -
22/04:30am 18.0 N 7 10 1019.1 - 0.0 - - 10 - - - -
22/04:00am 16.7 NNE 8 10 1019.3 - 0.0 - - 10 - - - -
22/03:30am 16.2 NE 8 10 1019.6 - 0.0 - - 10 - - - -
22/03:00am 16.2 NE 7 9 1020.1 - 0.0 - - 10 - - - -
22/02:30am 13.9 NNE 5 7 1020.3 - 0.0 - - 10 - - - -
22/02:00am 14.2 NE 3 5 1020.5 - 0.0 - - 10 - - - -
22/01:30am 14.6 NNE 6 6 1020.8 - 0.0 - - 10 - - - -
22/01:00am 14.5 N 4 5 1021.2 - 0.0 - - 10 - - - -
22/12:30am 15.6 N 5 6 1021.7 - 0.0 - - 10 - - - -
22/12:00am 14.9 N 5 7 1022.0 - 0.0 - Partly cloudy 10 - - - -
 
Date/Time
EDT
Temp

°C
Wind Pressure Rain
since 9am
mm
Weather Cloud Vis
km
Sea
Height
m
Swell
Dir
 
Speed
knots
Gust
knots
hPa Trend Height
m
Period
s
Dir
21/11:30pm 14.8 NNW 6 7 1022.3 - 0.0 - - 10 - - - -
21/11:00pm 15.4 NNW 5 7 1022.5 - 0.0 - - 10 - - - -
21/10:30pm 16.4 NNW 4 5 1022.6 - 0.0 - - 10 - - - -
21/10:00pm 17.7 E 5 6 1022.7 - 0.0 - - 10 - - - -
21/09:30pm 18.3 ESE 4 6 1022.6 - 0.0 - - 10 - - - -
21/09:00pm 18.7 E 5 7 1022.3 - 0.0 - - 10 - - - -
21/08:30pm 18.9 E 5 7 1022.2 - 0.0 - - 10 - - - -
21/08:00pm 19.6 E 7 9 1022.2 - 0.0 - - 10 - - - -
21/07:30pm 20.7 E 9 13 1022.0 - 0.0 - - 10 - - - -
21/07:00pm 21.7 ESE 10 16 1021.9 - 0.0 - - 10 - - - -
21/06:30pm 22.8 ESE 12 17 1021.8 - 0.0 - - 10 - - - -
21/06:00pm 23.3 ESE 14 18 1021.8 - 0.0 - - 10 - - - -
21/05:30pm 23.9 ESE 13 19 1021.9 - 0.0 - - 10 - - - -
21/05:00pm 24.4 ESE 13 20 1022.0 - 0.0 - - 10 - - - -
21/04:30pm 24.7 ESE 13 19 1022.3 - 0.0 - - 10 - - - -
21/04:00pm 24.4 ESE 13 17 1022.4 - 0.0 - - 10 - - - -
21/03:30pm 24.3 ESE 14 18 1022.9 - 0.0 - - 10 - - - -
21/03:00pm 24.6 SE 11 17 1023.4 - 0.0 - - 10 - - - -
21/02:30pm 27.1 ENE 8 11 1023.7 - 0.0 - - 10 - - - -
21/02:00pm 26.7 NE 11 17 1024.2 - 0.0 - - 10 - - - -
21/01:30pm 26.1 NNE 11 15 1024.7 - 0.0 - - 10 - - - -
21/01:00pm 24.9 NNE 12 20 1024.9 - 0.0 - - 10 - - - -
21/12:30pm 24.8 NNE 11 19 1025.3 - 0.0 - - 10 - - - -
21/12:00pm 23.8 NNE 14 20 1025.8 - 0.0 - - 10 - - - -
21/11:30am 23.2 NNE 15 21 1026.0 - 0.0 - - 10 - - - -
21/11:00am 21.2 ENE 10 15 1026.4 - 0.0 - - 10 - - - -
21/10:30am 19.0 ENE 9 15 1026.8 - 0.0 - - 10 - - - -
21/10:00am 17.3 ENE 9 12 1027.1 - 0.0 - - 10 - - - -
21/09:30am 15.6 E 6 8 1027.3 - 0.0 - - 10 - - - -
21/09:00am 13.5 E 7 9 1027.4 - 0.0 - - 10 - - - -
21/08:30am 11.8 E 5 6 1027.5 - 0.0 - - 10 - - - -
21/08:00am 10.1 NE 3 5 1027.2 - 0.0 - - 10 - - - -
21/07:30am 8.1 NE 3 4 1026.9 - 0.0 - - 10 - - - -
21/07:00am 6.2 N 4 5 1026.8 - 0.0 - - 10 - - - -
21/06:30am 5.2 NNE 5 6 1026.6 - 0.0 - - 10 - - - -
21/06:00am 4.6 NNW 1 5 1026.3 - 0.0 - - 10 - - - -
21/05:30am 4.4 NNW 3 4 1026.0 - 0.0 - - 10 - - - -
21/05:00am 4.6 NNW 5 7 1026.1 - 0.0 - - 10 - - - -
21/04:30am 5.1 N 6 7 1026.2 - 0.0 - - 10 - - - -
21/04:00am 4.8 NW 6 7 1026.1 - 0.0 - - 10 - - - -
21/03:30am 5.2 NNW 6 7 1026.3 - 0.0 - - 10 - - - -
21/03:00am 5.6 NW 6 7 1026.5 - 0.0 - - 10 - - - -
21/02:30am 6.2 NNW 6 7 1026.6 - 0.0 - - 10 - - - -
21/02:00am 8.8 E 4 5 1026.6 - 0.0 - - 10 - - - -
21/01:30am 10.0 E 4 5 1026.9 - 0.0 - - 10 - - - -
21/01:00am 10.3 ESE 5 6 1027.1 - 0.0 - - 10 - - - -
21/12:30am 11.0 ESE 5 7 1027.3 - 0.0 - - 10 - - - -
21/12:00am 11.4 ESE 8 11 1027.4 - 0.0 - - 10 - - - -
 
Date/Time
EDT
Temp

°C
Wind Pressure Rain
since 9am
mm
Weather Cloud Vis
km
Sea
Height
m
Swell
Dir
 
Speed
knots
Gust
knots
hPa Trend Height
m
Period
s
Dir
20/11:30pm 11.9 SE 10 14 1027.7 - 0.0 - - 10 - - - -
20/11:00pm 12.1 SE 11 16 1027.8 - 0.0 - - 10 - - - -
20/10:30pm 12.5 SE 12 19 1028.0 - 0.0 - - 10 - - - -
20/10:00pm 13.0 SE 15 23 1028.1 - 0.0 - - 10 - - - -
20/09:30pm 13.3 SE 14 22 1028.1 - 0.0 - - 10 - - - -
20/09:00pm 14.0 SE 15 23 1028.1 - 0.0 - - 10 - - - -
20/08:30pm 14.5 SE 14 20 1027.7 - 0.0 - - 10 - - - -
20/08:00pm 15.2 ESE 14 23 1027.4 - 0.0 - - 10 - - - -
20/07:30pm 15.6 S 11 19 1027.4 - 0.0 - - 10 - - - -
20/07:00pm 15.9 S 12 18 1027.2 - 0.0 - - 10 - - - -
20/06:30pm 16.7 S 13 18 1027.2 - 0.0 - - 10 - - - -
20/06:00pm 17.3 S 12 19 1027.3 - 0.0 - - 10 - - - -
20/05:30pm 17.9 S 14 18 1027.4 - 0.0 - - 10 - - - -
20/05:00pm 17.6 S 16 20 1027.4 - 0.0 - - 10 - - - -
20/04:30pm 18.4 S 14 20 1027.6 - 0.0 - - 10 - - - -
20/04:00pm 18.0 S 15 21 1027.7 - 0.0 - - 10 - - - -
20/03:30pm 17.7 S 13 19 1028.0 - 0.0 - - 10 - - - -
20/03:00pm 18.2 S 13 18 1028.2 - 0.0 - - 10 - - - -
20/02:30pm 17.3 SSE 13 20 1028.6 - 0.0 - - 10 - - - -
20/02:00pm 17.4 S 14 20 1029.0 - 0.0 - - 10 - - - -
20/01:30pm 17.1 S 14 19 1029.3 - 0.0 - - 10 - - - -
20/01:00pm 16.2 SE 13 18 1029.4 - 0.0 - - 10 - - - -
20/12:30pm 16.1 SSE 13 18 1029.8 - 0.0 - - 10 - - - -
20/12:00pm 15.6 SSE 14 19 1030.3 - 0.0 - - 10 - - - -
20/11:30am 14.6 SE 14 21 1030.5 - 0.0 - - 10 - - - -
20/11:00am 14.4 SE 14 19 1030.7 - 0.0 - - 10 - - - -
20/10:30am 14.6 SE 15 21 1030.7 - 0.0 - - 10 - - - -
20/10:00am 13.7 SE 15 21 1030.9 - 0.0 - - 10 - - - -
20/09:30am 13.1 ESE 13 20 1031.0 - 0.0 - - 10 - - - -
20/09:00am 12.5 SE 15 21 1030.9 - 0.0 - - 10 - - - -
20/08:30am 12.3 ESE 13 19 1030.5 - 0.0 - - 10 - - - -
20/08:00am 11.7 SE 13 18 1030.7 - 0.0 - - 10 - - - -
20/07:30am 11.4 SE 12 16 1030.4 - 0.0 - Partly cloudy 10 - - - -
20/07:00am 11.1 SE 12 18 1030.1 - 0.0 - Partly cloudy 10 - - - -
20/06:30am 11.2 SE 11 15 1029.9 - 0.0 - Partly cloudy 10 - - - -
20/06:00am 11.0 ESE 12 20 1029.4 - 0.0 - Mostly cloudy 10 - - - -
20/05:30am 11.6 SE 13 22 1029.3 - 0.0 - Partly cloudy 10 - - - -
20/05:00am 11.7 ESE 12 20 1029.1 - 0.0 - Partly cloudy 10 - - - -
20/04:30am 11.7 SE 14 21 1029.0 - 0.0 - Partly cloudy 10 - - - -
20/04:00am 11.7 SE 14 21 1028.9 - 0.0 - Partly cloudy 10 - - - -
20/03:30am 12.1 SE 13 19 1029.0 - 0.0 - Partly cloudy 10 - - - -
20/03:00am 12.3 SE 13 21 1028.9 - 0.0 - Cloudy 10 - - - -
20/02:30am 12.6 SSE 11 18 1029.1 - 0.0 - Partly cloudy 10 - - - -
20/02:00am 12.8 SSE 12 18 1029.1 - 0.0 - Partly cloudy 10 - - - -
20/01:30am 12.7 SSE 9 16 1029.3 - 0.0 - Partly cloudy 10 - - - -
20/01:00am 12.8 SSE 11 16 1029.2 - 0.0 - Cloudy 10 - - - -
20/12:30am 12.7 SSE 14 18 1029.4 - 0.0 - Cloudy 10 - - - -
20/12:00am 12.5 SSE 14 21 1029.1 - 0.0 - Cloudy 10 - - - -
 
Date/Time
EDT
Temp

°C
Wind Pressure Rain
since 9am
mm
Weather Cloud Vis
km
Sea
Height
m
Swell
Dir
 
Speed
knots
Gust
knots
hPa Trend Height
m
Period
s
Dir
19/11:47pm 12.7 SSE 13 20 1029.2 - 0.0 - Partly cloudy 10 - - - -
19/11:30pm 12.7 SSE 12 17 1029.1 - 0.0 - Partly cloudy 10 - - - -
19/11:00pm 13.1 SSE 13 19 1028.7 - 0.0 - Partly cloudy 10 - - - -
19/10:56pm 13.2 SSE 12 17 1028.6 - 0.0 - Partly cloudy 10 - - - -
19/10:30pm 13.7 S 12 17 1028.5 - 0.0 - - 10 - - - -
19/10:00pm 14.3 S 12 17 1028.0 - 0.0 - Partly cloudy 10 - - - -
19/09:30pm 14.4 S 10 13 1028.0 - 0.0 - Partly cloudy 10 - - - -

Other Formats:

Comma delimited format used in spreadsheet applications
http://www.bom.gov.au/fwo/IDV60701/IDV60701.94865.axf

JavaScript Object Notation format (JSON) in row-major order
http://www.bom.gov.au/fwo/IDV60701/IDV60701.94865.json